Joplin, Montana
Current Conditions -  °F | °C
As of 7:53 PM on Thursday 18 Dec 2014 (Local Time) from KHVR Reporting Station
Clear Clear  
Wind Chill: 17°   Ceiling: Unl
Heat Index: 23°   Visibility: 10mi
Dew Point: 20°   Wind: 5mph
Humidity: 88%   Direction: 250°WSW
Pressure: 29.9"   Gusts: NA
Location:  48.56°N, 110.78°W
Report Text: KHVR 190253Z AUTO 25004KT 10SM CLR M05/M07 A2990 RMK AO2 SLP164 T10501067 51002
Loading
Personal Weather Stations






























Interactive Weather Map New forecast layout! Learn more

10-Day Weather Forecast

Advertisements
Track Severe Weather on mobile